sensor_id;sensor_type;location;lat;lon;timestamp;temperature;humidity
6118;DHT22;3089;48.202;11.510;2023-02-15T00:00:03;1.20;99.90
6118;DHT22;3089;48.202;11.510;2023-02-15T00:02:32;1.30;99.90
6118;DHT22;3089;48.202;11.510;2023-02-15T00:05:00;1.30;99.90
6118;DHT22;3089;48.202;11.510;2023-02-15T00:07:29;1.40;99.90
6118;DHT22;3089;48.202;11.510;2023-02-15T00:09:56;1.00;99.90
6118;DHT22;3089;48.202;11.510;2023-02-15T00:12:24;0.60;99.90
6118;DHT22;3089;48.202;11.510;2023-02-15T00:14:52;0.30;99.90
6118;DHT22;3089;48.202;11.510;2023-02-15T00:17:20;0.50;99.90
6118;DHT22;3089;48.202;11.510;2023-02-15T00:19:48;0.80;99.90
6118;DHT22;3089;48.202;11.510;2023-02-15T00:22:16;1.10;99.90
6118;DHT22;3089;48.202;11.510;2023-02-15T00:24:45;1.30;99.90
6118;DHT22;3089;48.202;11.510;2023-02-15T00:27:13;1.00;99.90
6118;DHT22;3089;48.202;11.510;2023-02-15T00:29:41;1.20;99.90
6118;DHT22;3089;48.202;11.510;2023-02-15T00:32:08;1.10;99.90
6118;DHT22;3089;48.202;11.510;2023-02-15T00:34:36;1.20;99.90
6118;DHT22;3089;48.202;11.510;2023-02-15T00:37:04;0.50;99.90
6118;DHT22;3089;48.202;11.510;2023-02-15T00:39:32;0.40;99.90
6118;DHT22;3089;48.202;11.510;2023-02-15T00:42:01;0.20;99.90
6118;DHT22;3089;48.202;11.510;2023-02-15T00:44:29;0.50;99.90
6118;DHT22;3089;48.202;11.510;2023-02-15T00:46:56;0.10;99.90
6118;DHT22;3089;48.202;11.510;2023-02-15T00:49:24;0.70;99.90
6118;DHT22;3089;48.202;11.510;2023-02-15T00:51:52;1.10;99.90
6118;DHT22;3089;48.202;11.510;2023-02-15T00:54:20;0.70;99.90
6118;DHT22;3089;48.202;11.510;2023-02-15T00:56:48;0.10;99.90
6118;DHT22;3089;48.202;11.510;2023-02-15T00:59:17;0.80;99.90
6118;DHT22;3089;48.202;11.510;2023-02-15T01:01:45;-0.10;99.90
6118;DHT22;3089;48.202;11.510;2023-02-15T01:04:12;-0.40;99.90
6118;DHT22;3089;48.202;11.510;2023-02-15T01:06:40;-0.10;99.90
6118;DHT22;3089;48.202;11.510;2023-02-15T01:09:08;-0.20;99.90
6118;DHT22;3089;48.202;11.510;2023-02-15T01:11:36;-0.60;99.90
6118;DHT22;3089;48.202;11.510;2023-02-15T01:14:04;-0.30;99.90
6118;DHT22;3089;48.202;11.510;2023-02-15T01:16:33;-0.50;99.90
6118;DHT22;3089;48.202;11.510;2023-02-15T01:19:01;-0.60;99.90
6118;DHT22;3089;48.202;11.510;2023-02-15T01:21:29;-0.60;99.90
6118;DHT22;3089;48.202;11.510;2023-02-15T01:24:00;-0.50;99.90
6118;DHT22;3089;48.202;11.510;2023-02-15T01:26:28;-0.70;99.90
6118;DHT22;3089;48.202;11.510;2023-02-15T01:28:56;-0.40;99.90
6118;DHT22;3089;48.202;11.510;2023-02-15T01:31:24;-0.90;99.90
6118;DHT22;3089;48.202;11.510;2023-02-15T01:33:53;0.30;99.90
6118;DHT22;3089;48.202;11.510;2023-02-15T01:36:21;0.30;99.90
6118;DHT22;3089;48.202;11.510;2023-02-15T01:38:48;-0.10;99.90
6118;DHT22;3089;48.202;11.510;2023-02-15T01:41:16;0.10;99.90
6118;DHT22;3089;48.202;11.510;2023-02-15T01:43:51;-0.30;99.90
6118;DHT22;3089;48.202;11.510;2023-02-15T01:46:23;-1.20;99.90
6118;DHT22;3089;48.202;11.510;2023-02-15T01:48:56;0.00;99.90
6118;DHT22;3089;48.202;11.510;2023-02-15T01:51:29;0.00;99.90
6118;DHT22;3089;48.202;11.510;2023-02-15T01:54:01;0.40;99.90
6118;DHT22;3089;48.202;11.510;2023-02-15T01:56:33;-0.40;99.90
6118;DHT22;3089;48.202;11.510;2023-02-15T01:59:06;-0.20;99.90
6118;DHT22;3089;48.202;11.510;2023-02-15T02:01:34;0.60;99.90
6118;DHT22;3089;48.202;11.510;2023-02-15T02:04:10;-1.10;99.90
6118;DHT22;3089;48.202;11.510;2023-02-15T02:06:41;-0.80;99.90
6118;DHT22;3089;48.202;11.510;2023-02-15T02:09:09;-0.30;99.90
6118;DHT22;3089;48.202;11.510;2023-02-15T02:11:39;0.40;99.90
6118;DHT22;3089;48.202;11.510;2023-02-15T02:14:08;0.30;99.90
6118;DHT22;3089;48.202;11.510;2023-02-15T02:16:42;0.40;99.90
6118;DHT22;3089;48.202;11.510;2023-02-15T02:22:42;0.70;99.90
6118;DHT22;3089;48.202;11.510;2023-02-15T02:28:41;0.30;99.90
6118;DHT22;3089;48.202;11.510;2023-02-15T02:31:31;-0.50;99.90
6118;DHT22;3089;48.202;11.510;2023-02-15T02:34:10;0.20;99.90
6118;DHT22;3089;48.202;11.510;2023-02-15T02:36:45;0.50;99.90
6118;DHT22;3089;48.202;11.510;2023-02-15T02:39:23;0.60;99.90
6118;DHT22;3089;48.202;11.510;2023-02-15T02:42:00;0.50;99.90
6118;DHT22;3089;48.202;11.510;2023-02-15T02:44:35;0.10;99.90
6118;DHT22;3089;48.202;11.510;2023-02-15T02:47:13;0.50;99.90
6118;DHT22;3089;48.202;11.510;2023-02-15T02:49:45;0.60;99.90
6118;DHT22;3089;48.202;11.510;2023-02-15T02:52:40;0.40;99.90
6118;DHT22;3089;48.202;11.510;2023-02-15T02:55:12;-0.10;99.90
6118;DHT22;3089;48.202;11.510;2023-02-15T02:57:49;0.60;99.90
6118;DHT22;3089;48.202;11.510;2023-02-15T03:00:18;0.80;99.90
6118;DHT22;3089;48.202;11.510;2023-02-15T03:02:50;0.80;99.90
6118;DHT22;3089;48.202;11.510;2023-02-15T03:05:22;0.80;99.90
6118;DHT22;3089;48.202;11.510;2023-02-15T03:07:54;0.80;99.90
6118;DHT22;3089;48.202;11.510;2023-02-15T03:10:24;0.80;99.90
6118;DHT22;3089;48.202;11.510;2023-02-15T03:12:52;0.80;99.90
6118;DHT22;3089;48.202;11.510;2023-02-15T03:15:24;0.80;99.90
6118;DHT22;3089;48.202;11.510;2023-02-15T03:17:57;0.80;99.90
6118;DHT22;3089;48.202;11.510;2023-02-15T03:20:32;0.60;99.90
6118;DHT22;3089;48.202;11.510;2023-02-15T03:23:04;0.60;99.90
6118;DHT22;3089;48.202;11.510;2023-02-15T03:25:34;0.40;99.90
6118;DHT22;3089;48.202;11.510;2023-02-15T03:28:06;0.60;99.90
6118;DHT22;3089;48.202;11.510;2023-02-15T03:30:34;0.60;99.90
6118;DHT22;3089;48.202;11.510;2023-02-15T03:33:04;0.60;99.90
6118;DHT22;3089;48.202;11.510;2023-02-15T03:35:40;0.50;99.90
6118;DHT22;3089;48.202;11.510;2023-02-15T03:38:13;0.60;99.90
6118;DHT22;3089;48.202;11.510;2023-02-15T03:40:45;0.70;99.90
6118;DHT22;3089;48.202;11.510;2023-02-15T03:43:38;0.70;99.90
6118;DHT22;3089;48.202;11.510;2023-02-15T03:46:12;0.70;99.90
6118;DHT22;3089;48.202;11.510;2023-02-15T03:48:44;0.70;99.90
6118;DHT22;3089;48.202;11.510;2023-02-15T03:51:18;0.70;99.90
6118;DHT22;3089;48.202;11.510;2023-02-15T03:54:04;0.70;99.90
6118;DHT22;3089;48.202;11.510;2023-02-15T03:56:33;0.70;99.90
6118;DHT22;3089;48.202;11.510;2023-02-15T03:59:04;0.70;99.90
6118;DHT22;3089;48.202;11.510;2023-02-15T04:02:00;0.70;99.90
6118;DHT22;3089;48.202;11.510;2023-02-15T04:04:35;0.60;99.90
6118;DHT22;3089;48.202;11.510;2023-02-15T04:07:06;0.60;99.90
6118;DHT22;3089;48.202;11.510;2023-02-15T04:09:34;0.60;99.90
6118;DHT22;3089;48.202;11.510;2023-02-15T04:12:20;0.70;99.90
6118;DHT22;3089;48.202;11.510;2023-02-15T04:14:48;0.60;99.90
6118;DHT22;3089;48.202;11.510;2023-02-15T04:17:33;0.60;99.90
6118;DHT22;3089;48.202;11.510;2023-02-15T04:20:03;0.60;99.90
6118;DHT22;3089;48.202;11.510;2023-02-15T04:22:50;0.70;99.90
6118;DHT22;3089;48.202;11.510;2023-02-15T04:25:35;0.60;99.90
6118;DHT22;3089;48.202;11.510;2023-02-15T04:28:03;0.60;99.90
6118;DHT22;3089;48.202;11.510;2023-02-15T04:30:32;0.70;99.90
6118;DHT22;3089;48.202;11.510;2023-02-15T04:33:00;0.70;99.90
6118;DHT22;3089;48.202;11.510;2023-02-15T04:35:27;0.70;99.90
6118;DHT22;3089;48.202;11.510;2023-02-15T04:37:57;0.70;99.90
6118;DHT22;3089;48.202;11.510;2023-02-15T04:40:25;0.60;99.90
6118;DHT22;3089;48.202;11.510;2023-02-15T04:42:52;0.60;99.90
6118;DHT22;3089;48.202;11.510;2023-02-15T04:45:20;0.60;99.90
6118;DHT22;3089;48.202;11.510;2023-02-15T04:47:48;0.50;99.90
6118;DHT22;3089;48.202;11.510;2023-02-15T04:50:16;0.50;99.90
6118;DHT22;3089;48.202;11.510;2023-02-15T04:52:44;0.60;99.90
6118;DHT22;3089;48.202;11.510;2023-02-15T04:55:13;0.60;99.90
6118;DHT22;3089;48.202;11.510;2023-02-15T04:57:41;0.60;99.90
6118;DHT22;3089;48.202;11.510;2023-02-15T05:00:10;0.60;99.90
6118;DHT22;3089;48.202;11.510;2023-02-15T05:02:38;0.60;99.90
6118;DHT22;3089;48.202;11.510;2023-02-15T05:05:06;0.60;99.90
6118;DHT22;3089;48.202;11.510;2023-02-15T05:07:35;0.60;99.90
6118;DHT22;3089;48.202;11.510;2023-02-15T05:10:04;0.50;99.90
6118;DHT22;3089;48.202;11.510;2023-02-15T05:12:33;0.50;99.90
6118;DHT22;3089;48.202;11.510;2023-02-15T05:15:01;0.60;99.90
6118;DHT22;3089;48.202;11.510;2023-02-15T05:17:29;0.60;99.90
6118;DHT22;3089;48.202;11.510;2023-02-15T05:19:56;0.60;99.90
6118;DHT22;3089;48.202;11.510;2023-02-15T05:22:24;0.60;99.90
6118;DHT22;3089;48.202;11.510;2023-02-15T05:24:52;0.60;99.90
6118;DHT22;3089;48.202;11.510;2023-02-15T05:27:39;0.60;99.90
6118;DHT22;3089;48.202;11.510;2023-02-15T05:30:24;0.60;99.90
6118;DHT22;3089;48.202;11.510;2023-02-15T05:32:52;0.50;99.90
6118;DHT22;3089;48.202;11.510;2023-02-15T05:35:20;0.50;99.90
6118;DHT22;3089;48.202;11.510;2023-02-15T05:37:48;0.50;99.90
6118;DHT22;3089;48.202;11.510;2023-02-15T05:40:16;0.50;99.90
6118;DHT22;3089;48.202;11.510;2023-02-15T05:42:45;0.50;99.90
6118;DHT22;3089;48.202;11.510;2023-02-15T05:45:13;0.50;99.90
6118;DHT22;3089;48.202;11.510;2023-02-15T05:47:42;0.50;99.90
6118;DHT22;3089;48.202;11.510;2023-02-15T05:50:10;0.20;99.90
6118;DHT22;3089;48.202;11.510;2023-02-15T05:52:38;-0.30;99.90
6118;DHT22;3089;48.202;11.510;2023-02-15T05:55:06;-0.40;99.90
6118;DHT22;3089;48.202;11.510;2023-02-15T05:57:35;0.00;99.90
6118;DHT22;3089;48.202;11.510;2023-02-15T06:00:05;0.40;99.90
6118;DHT22;3089;48.202;11.510;2023-02-15T06:02:35;0.50;99.90
6118;DHT22;3089;48.202;11.510;2023-02-15T06:05:03;0.50;99.90
6118;DHT22;3089;48.202;11.510;2023-02-15T06:07:31;0.50;99.90
6118;DHT22;3089;48.202;11.510;2023-02-15T06:09:59;0.40;99.90
6118;DHT22;3089;48.202;11.510;2023-02-15T06:12:27;0.50;99.90
6118;DHT22;3089;48.202;11.510;2023-02-15T06:14:55;0.40;99.90
6118;DHT22;3089;48.202;11.510;2023-02-15T06:17:24;0.40;99.90
6118;DHT22;3089;48.202;11.510;2023-02-15T06:19:52;0.40;99.90
6118;DHT22;3089;48.202;11.510;2023-02-15T06:22:20;0.50;99.90
6118;DHT22;3089;48.202;11.510;2023-02-15T06:24:47;0.40;99.90
6118;DHT22;3089;48.202;11.510;2023-02-15T06:27:15;0.50;99.90
6118;DHT22;3089;48.202;11.510;2023-02-15T06:29:43;0.50;99.90
6118;DHT22;3089;48.202;11.510;2023-02-15T06:32:11;0.50;99.90
6118;DHT22;3089;48.202;11.510;2023-02-15T06:34:40;-0.10;99.90
6118;DHT22;3089;48.202;11.510;2023-02-15T06:37:08;-0.30;99.90
6118;DHT22;3089;48.202;11.510;2023-02-15T06:39:35;0.20;99.90
6118;DHT22;3089;48.202;11.510;2023-02-15T06:42:04;0.30;99.90
6118;DHT22;3089;48.202;11.510;2023-02-15T06:44:31;0.30;99.90
6118;DHT22;3089;48.202;11.510;2023-02-15T06:46:59;0.20;99.90
6118;DHT22;3089;48.202;11.510;2023-02-15T06:49:27;0.20;99.90
6118;DHT22;3089;48.202;11.510;2023-02-15T06:51:56;0.40;99.90
6118;DHT22;3089;48.202;11.510;2023-02-15T06:54:24;0.40;99.90
6118;DHT22;3089;48.202;11.510;2023-02-15T06:56:52;0.40;99.90
6118;DHT22;3089;48.202;11.510;2023-02-15T06:59:19;0.40;99.90
6118;DHT22;3089;48.202;11.510;2023-02-15T07:01:47;0.50;99.90
6118;DHT22;3089;48.202;11.510;2023-02-15T07:04:16;0.50;99.90
6118;DHT22;3089;48.202;11.510;2023-02-15T07:06:44;0.50;99.90
6118;DHT22;3089;48.202;11.510;2023-02-15T07:09:13;0.50;99.90
6118;DHT22;3089;48.202;11.510;2023-02-15T07:11:41;0.40;99.90
6118;DHT22;3089;48.202;11.510;2023-02-15T07:14:26;0.50;99.90
6118;DHT22;3089;48.202;11.510;2023-02-15T07:16:54;0.60;99.90
6118;DHT22;3089;48.202;11.510;2023-02-15T07:19:22;0.60;99.90
6118;DHT22;3089;48.202;11.510;2023-02-15T07:21:50;0.70;99.90
6118;DHT22;3089;48.202;11.510;2023-02-15T07:24:19;0.70;99.90
6118;DHT22;3089;48.202;11.510;2023-02-15T07:26:47;0.60;99.90
6118;DHT22;3089;48.202;11.510;2023-02-15T07:29:15;0.60;99.90
6118;DHT22;3089;48.202;11.510;2023-02-15T07:31:42;0.60;99.90
6118;DHT22;3089;48.202;11.510;2023-02-15T07:34:12;0.60;99.90
6118;DHT22;3089;48.202;11.510;2023-02-15T07:36:40;0.60;99.90
6118;DHT22;3089;48.202;11.510;2023-02-15T07:39:07;0.70;99.90
6118;DHT22;3089;48.202;11.510;2023-02-15T07:41:36;0.60;99.90
6118;DHT22;3089;48.202;11.510;2023-02-15T07:44:04;0.10;99.90
6118;DHT22;3089;48.202;11.510;2023-02-15T07:46:32;0.50;99.90
6118;DHT22;3089;48.202;11.510;2023-02-15T07:49:00;0.70;99.90
6118;DHT22;3089;48.202;11.510;2023-02-15T07:51:28;0.80;99.90
6118;DHT22;3089;48.202;11.510;2023-02-15T07:53:56;0.70;99.90
6118;DHT22;3089;48.202;11.510;2023-02-15T07:56:23;0.80;99.90
6118;DHT22;3089;48.202;11.510;2023-02-15T07:58:53;0.80;99.90
6118;DHT22;3089;48.202;11.510;2023-02-15T08:01:24;0.80;99.90
6118;DHT22;3089;48.202;11.510;2023-02-15T08:03:53;0.80;99.90
6118;DHT22;3089;48.202;11.510;2023-02-15T08:06:22;0.70;99.90
6118;DHT22;3089;48.202;11.510;2023-02-15T08:08:50;0.00;99.90
6118;DHT22;3089;48.202;11.510;2023-02-15T08:11:19;0.20;99.90
6118;DHT22;3089;48.202;11.510;2023-02-15T08:13:57;0.70;99.90
6118;DHT22;3089;48.202;11.510;2023-02-15T08:16:29;0.50;99.90
6118;DHT22;3089;48.202;11.510;2023-02-15T08:18:58;0.60;99.90
6118;DHT22;3089;48.202;11.510;2023-02-15T08:21:27;-0.10;99.90
6118;DHT22;3089;48.202;11.510;2023-02-15T08:23:56;0.50;99.90
6118;DHT22;3089;48.202;11.510;2023-02-15T08:26:25;0.60;99.90
6118;DHT22;3089;48.202;11.510;2023-02-15T08:28:54;0.70;99.90
6118;DHT22;3089;48.202;11.510;2023-02-15T08:31:23;0.90;99.90
6118;DHT22;3089;48.202;11.510;2023-02-15T08:33:53;0.90;99.90
6118;DHT22;3089;48.202;11.510;2023-02-15T08:36:23;1.00;99.90
6118;DHT22;3089;48.202;11.510;2023-02-15T08:38:51;0.90;99.90
6118;DHT22;3089;48.202;11.510;2023-02-15T08:41:20;1.00;99.90
6118;DHT22;3089;48.202;11.510;2023-02-15T08:43:51;1.00;99.90
6118;DHT22;3089;48.202;11.510;2023-02-15T08:46:21;0.90;99.90
6118;DHT22;3089;48.202;11.510;2023-02-15T08:48:50;0.80;99.90
6118;DHT22;3089;48.202;11.510;2023-02-15T08:51:20;0.80;99.90
6118;DHT22;3089;48.202;11.510;2023-02-15T08:53:49;0.60;99.90
6118;DHT22;3089;48.202;11.510;2023-02-15T08:56:19;0.40;99.90
6118;DHT22;3089;48.202;11.510;2023-02-15T08:58:47;0.70;99.90
6118;DHT22;3089;48.202;11.510;2023-02-15T09:01:16;0.50;99.90
6118;DHT22;3089;48.202;11.510;2023-02-15T09:03:48;0.70;99.90
6118;DHT22;3089;48.202;11.510;2023-02-15T09:06:18;0.90;99.90
6118;DHT22;3089;48.202;11.510;2023-02-15T09:08:46;0.80;99.90
6118;DHT22;3089;48.202;11.510;2023-02-15T09:11:15;0.90;99.90
6118;DHT22;3089;48.202;11.510;2023-02-15T09:13:49;1.00;99.90
6118;DHT22;3089;48.202;11.510;2023-02-15T09:16:18;0.70;99.90
6118;DHT22;3089;48.202;11.510;2023-02-15T09:18:47;0.70;99.90
6118;DHT22;3089;48.202;11.510;2023-02-15T09:21:18;0.60;99.90
6118;DHT22;3089;48.202;11.510;2023-02-15T09:23:48;0.70;99.90
6118;DHT22;3089;48.202;11.510;2023-02-15T09:26:17;0.70;99.90
6118;DHT22;3089;48.202;11.510;2023-02-15T09:28:46;0.80;99.90
6118;DHT22;3089;48.202;11.510;2023-02-15T09:31:16;0.90;99.90
6118;DHT22;3089;48.202;11.510;2023-02-15T09:33:46;1.10;99.90
6118;DHT22;3089;48.202;11.510;2023-02-15T09:36:16;0.80;99.90
6118;DHT22;3089;48.202;11.510;2023-02-15T09:38:46;0.90;99.90
6118;DHT22;3089;48.202;11.510;2023-02-15T09:44:14;0.90;99.90
6118;DHT22;3089;48.202;11.510;2023-02-15T09:46:56;1.10;99.90
6118;DHT22;3089;48.202;11.510;2023-02-15T09:49:32;0.40;99.90
6118;DHT22;3089;48.202;11.510;2023-02-15T09:52:22;0.80;99.90
6118;DHT22;3089;48.202;11.510;2023-02-15T09:55:06;1.00;99.90
6118;DHT22;3089;48.202;11.510;2023-02-15T09:57:41;0.80;99.90
6118;DHT22;3089;48.202;11.510;2023-02-15T10:00:16;1.00;99.90
6118;DHT22;3089;48.202;11.510;2023-02-15T10:03:16;0.90;99.90
6118;DHT22;3089;48.202;11.510;2023-02-15T10:06:03;1.10;99.90
6118;DHT22;3089;48.202;11.510;2023-02-15T10:08:49;1.20;99.90
6118;DHT22;3089;48.202;11.510;2023-02-15T10:11:25;1.10;99.90
6118;DHT22;3089;48.202;11.510;2023-02-15T10:17:28;1.60;99.90
6118;DHT22;3089;48.202;11.510;2023-02-15T10:20:08;1.80;99.90
6118;DHT22;3089;48.202;11.510;2023-02-15T10:22:53;1.90;99.90
6118;DHT22;3089;48.202;11.510;2023-02-15T10:25:34;1.90;99.90
6118;DHT22;3089;48.202;11.510;2023-02-15T10:28:11;1.70;99.90
6118;DHT22;3089;48.202;11.510;2023-02-15T10:30:46;1.90;99.90
6118;DHT22;3089;48.202;11.510;2023-02-15T10:33:33;2.00;99.90
6118;DHT22;3089;48.202;11.510;2023-02-15T10:36:11;1.80;99.90
6118;DHT22;3089;48.202;11.510;2023-02-15T10:38:48;1.80;99.90
6118;DHT22;3089;48.202;11.510;2023-02-15T10:41:29;1.80;99.90
6118;DHT22;3089;48.202;11.510;2023-02-15T10:44:20;1.80;99.90
6118;DHT22;3089;48.202;11.510;2023-02-15T10:47:12;2.00;99.90
6118;DHT22;3089;48.202;11.510;2023-02-15T10:49:58;2.00;99.90
6118;DHT22;3089;48.202;11.510;2023-02-15T10:52:38;2.20;99.90
6118;DHT22;3089;48.202;11.510;2023-02-15T10:55:15;2.20;99.90
6118;DHT22;3089;48.202;11.510;2023-02-15T10:57:54;2.10;99.90
6118;DHT22;3089;48.202;11.510;2023-02-15T11:00:31;1.90;99.90
6118;DHT22;3089;48.202;11.510;2023-02-15T11:03:32;2.00;99.90
6118;DHT22;3089;48.202;11.510;2023-02-15T11:06:04;2.10;99.90
6118;DHT22;3089;48.202;11.510;2023-02-15T11:08:37;2.20;99.90
6118;DHT22;3089;48.202;11.510;2023-02-15T11:11:09;2.10;99.90
6118;DHT22;3089;48.202;11.510;2023-02-15T11:13:39;2.20;99.90
6118;DHT22;3089;48.202;11.510;2023-02-15T11:16:14;1.90;99.90
6118;DHT22;3089;48.202;11.510;2023-02-15T11:18:50;2.00;99.90
6118;DHT22;3089;48.202;11.510;2023-02-15T11:21:22;2.20;99.90
6118;DHT22;3089;48.202;11.510;2023-02-15T11:23:51;3.80;99.90
6118;DHT22;3089;48.202;11.510;2023-02-15T11:26:24;3.90;99.90
6118;DHT22;3089;48.202;11.510;2023-02-15T11:28:57;3.50;99.90
6118;DHT22;3089;48.202;11.510;2023-02-15T11:31:36;3.10;99.90
6118;DHT22;3089;48.202;11.510;2023-02-15T11:34:13;3.30;99.90
6118;DHT22;3089;48.202;11.510;2023-02-15T11:36:43;2.90;99.90
6118;DHT22;3089;48.202;11.510;2023-02-15T11:39:15;3.00;99.90
6118;DHT22;3089;48.202;11.510;2023-02-15T11:41:47;3.00;99.90
6118;DHT22;3089;48.202;11.510;2023-02-15T11:44:21;3.00;99.90
6118;DHT22;3089;48.202;11.510;2023-02-15T11:46:52;3.40;99.90
6118;DHT22;3089;48.202;11.510;2023-02-15T11:49:24;3.50;99.90
6118;DHT22;3089;48.202;11.510;2023-02-15T11:51:55;3.60;99.90
6118;DHT22;3089;48.202;11.510;2023-02-15T11:54:27;3.70;99.90
6118;DHT22;3089;48.202;11.510;2023-02-15T11:56:56;3.50;99.90
6118;DHT22;3089;48.202;11.510;2023-02-15T11:59:31;3.30;99.90
6118;DHT22;3089;48.202;11.510;2023-02-15T12:02:01;3.30;99.90
6118;DHT22;3089;48.202;11.510;2023-02-15T12:04:31;3.30;99.90
6118;DHT22;3089;48.202;11.510;2023-02-15T12:07:04;3.10;99.90
6118;DHT22;3089;48.202;11.510;2023-02-15T12:09:45;3.90;99.90
6118;DHT22;3089;48.202;11.510;2023-02-15T12:12:21;4.10;99.90
6118;DHT22;3089;48.202;11.510;2023-02-15T12:14:52;3.50;99.90
6118;DHT22;3089;48.202;11.510;2023-02-15T12:17:24;3.80;99.90
6118;DHT22;3089;48.202;11.510;2023-02-15T12:19:53;4.20;99.90
6118;DHT22;3089;48.202;11.510;2023-02-15T12:22:24;4.30;99.90
6118;DHT22;3089;48.202;11.510;2023-02-15T12:24:54;3.70;99.90
6118;DHT22;3089;48.202;11.510;2023-02-15T12:27:25;4.10;99.90
6118;DHT22;3089;48.202;11.510;2023-02-15T12:29:56;4.70;99.90
6118;DHT22;3089;48.202;11.510;2023-02-15T12:32:29;5.70;99.90
6118;DHT22;3089;48.202;11.510;2023-02-15T12:35:01;5.20;99.90
6118;DHT22;3089;48.202;11.510;2023-02-15T12:37:34;4.90;99.90
6118;DHT22;3089;48.202;11.510;2023-02-15T12:40:19;5.10;99.90
6118;DHT22;3089;48.202;11.510;2023-02-15T12:42:47;5.00;99.90
6118;DHT22;3089;48.202;11.510;2023-02-15T12:45:24;4.40;99.90
6118;DHT22;3089;48.202;11.510;2023-02-15T12:48:16;5.00;99.90
6118;DHT22;3089;48.202;11.510;2023-02-15T12:50:45;4.70;99.90
6118;DHT22;3089;48.202;11.510;2023-02-15T12:53:22;4.50;99.90
6118;DHT22;3089;48.202;11.510;2023-02-15T12:55:52;4.80;99.90
6118;DHT22;3089;48.202;11.510;2023-02-15T12:58:22;5.00;99.90
6118;DHT22;3089;48.202;11.510;2023-02-15T13:01:10;4.80;99.90
6118;DHT22;3089;48.202;11.510;2023-02-15T13:03:54;5.20;99.90
6118;DHT22;3089;48.202;11.510;2023-02-15T13:06:22;5.70;99.90
6118;DHT22;3089;48.202;11.510;2023-02-15T13:08:52;5.80;99.90
6118;DHT22;3089;48.202;11.510;2023-02-15T13:11:24;5.30;99.90
6118;DHT22;3089;48.202;11.510;2023-02-15T13:13:58;4.90;99.90
6118;DHT22;3089;48.202;11.510;2023-02-15T13:16:30;4.90;99.90
6118;DHT22;3089;48.202;11.510;2023-02-15T13:19:04;5.00;99.90
6118;DHT22;3089;48.202;11.510;2023-02-15T13:21:36;4.70;99.90
6118;DHT22;3089;48.202;11.510;2023-02-15T13:24:06;4.60;99.90
6118;DHT22;3089;48.202;11.510;2023-02-15T13:26:35;4.70;99.90
6118;DHT22;3089;48.202;11.510;2023-02-15T13:29:07;5.10;99.90
6118;DHT22;3089;48.202;11.510;2023-02-15T13:31:36;5.10;99.90
6118;DHT22;3089;48.202;11.510;2023-02-15T13:34:10;4.90;99.90
6118;DHT22;3089;48.202;11.510;2023-02-15T13:36:45;5.10;99.90
6118;DHT22;3089;48.202;11.510;2023-02-15T13:39:22;4.90;99.90
6118;DHT22;3089;48.202;11.510;2023-02-15T13:41:56;5.90;99.90
6118;DHT22;3089;48.202;11.510;2023-02-15T13:44:42;5.60;99.90
6118;DHT22;3089;48.202;11.510;2023-02-15T13:47:22;5.60;99.90
6118;DHT22;3089;48.202;11.510;2023-02-15T13:50:04;5.40;99.90
6118;DHT22;3089;48.202;11.510;2023-02-15T13:52:42;5.40;99.90
6118;DHT22;3089;48.202;11.510;2023-02-15T13:55:31;5.40;99.90
6118;DHT22;3089;48.202;11.510;2023-02-15T14:01:02;5.10;99.90
6118;DHT22;3089;48.202;11.510;2023-02-15T14:03:58;5.00;99.90
6118;DHT22;3089;48.202;11.510;2023-02-15T14:06:47;5.60;99.90
6118;DHT22;3089;48.202;11.510;2023-02-15T14:09:30;5.70;99.90
6118;DHT22;3089;48.202;11.510;2023-02-15T14:12:12;5.10;99.90
6118;DHT22;3089;48.202;11.510;2023-02-15T14:15:06;4.80;99.90
6118;DHT22;3089;48.202;11.510;2023-02-15T14:17:45;4.90;99.90
6118;DHT22;3089;48.202;11.510;2023-02-15T14:20:21;5.30;99.90
6118;DHT22;3089;48.202;11.510;2023-02-15T14:22:59;5.00;99.90
6118;DHT22;3089;48.202;11.510;2023-02-15T14:25:33;4.40;99.90
6118;DHT22;3089;48.202;11.510;2023-02-15T14:28:06;4.80;99.90
6118;DHT22;3089;48.202;11.510;2023-02-15T14:30:37;4.80;99.90
6118;DHT22;3089;48.202;11.510;2023-02-15T14:33:08;5.10;99.90
6118;DHT22;3089;48.202;11.510;2023-02-15T14:35:36;5.00;99.90
6118;DHT22;3089;48.202;11.510;2023-02-15T14:38:15;5.20;99.90
6118;DHT22;3089;48.202;11.510;2023-02-15T14:40:50;4.80;99.90
6118;DHT22;3089;48.202;11.510;2023-02-15T14:43:41;5.10;99.90
6118;DHT22;3089;48.202;11.510;2023-02-15T14:46:20;5.40;99.90
6118;DHT22;3089;48.202;11.510;2023-02-15T14:48:51;5.10;99.90
6118;DHT22;3089;48.202;11.510;2023-02-15T14:51:53;5.20;99.90
6118;DHT22;3089;48.202;11.510;2023-02-15T14:57:31;4.90;99.90
6118;DHT22;3089;48.202;11.510;2023-02-15T15:00:36;4.60;99.90
6118;DHT22;3089;48.202;11.510;2023-02-15T15:03:12;4.90;99.90
6118;DHT22;3089;48.202;11.510;2023-02-15T15:05:49;5.10;99.90
6118;DHT22;3089;48.202;11.510;2023-02-15T15:08:29;5.00;99.90
6118;DHT22;3089;48.202;11.510;2023-02-15T15:11:37;4.90;99.90
6118;DHT22;3089;48.202;11.510;2023-02-15T15:14:37;5.00;99.90
6118;DHT22;3089;48.202;11.510;2023-02-15T15:17:08;4.60;99.90
6118;DHT22;3089;48.202;11.510;2023-02-15T15:20:05;4.50;99.90
6118;DHT22;3089;48.202;11.510;2023-02-15T15:22:40;4.70;99.90
6118;DHT22;3089;48.202;11.510;2023-02-15T15:25:10;4.80;99.90
6118;DHT22;3089;48.202;11.510;2023-02-15T15:27:41;4.70;99.90
6118;DHT22;3089;48.202;11.510;2023-02-15T15:30:50;4.40;99.90
6118;DHT22;3089;48.202;11.510;2023-02-15T15:33:37;4.30;99.90
6118;DHT22;3089;48.202;11.510;2023-02-15T15:39:24;4.30;99.90
6118;DHT22;3089;48.202;11.510;2023-02-15T15:42:01;4.40;99.90
6118;DHT22;3089;48.202;11.510;2023-02-15T15:45:19;3.90;99.90
6118;DHT22;3089;48.202;11.510;2023-02-15T15:48:19;4.00;99.90
6118;DHT22;3089;48.202;11.510;2023-02-15T15:50:52;3.90;99.90
6118;DHT22;3089;48.202;11.510;2023-02-15T15:53:23;4.00;99.90
6118;DHT22;3089;48.202;11.510;2023-02-15T15:55:56;3.70;99.90
6118;DHT22;3089;48.202;11.510;2023-02-15T15:58:26;3.40;99.90
6118;DHT22;3089;48.202;11.510;2023-02-15T16:01:00;3.10;99.90
6118;DHT22;3089;48.202;11.510;2023-02-15T16:03:31;3.30;99.90
6118;DHT22;3089;48.202;11.510;2023-02-15T16:05:59;2.90;99.90
6118;DHT22;3089;48.202;11.510;2023-02-15T16:08:30;3.10;99.90
6118;DHT22;3089;48.202;11.510;2023-02-15T16:11:10;3.10;99.90
6118;DHT22;3089;48.202;11.510;2023-02-15T16:13:40;2.90;99.90
6118;DHT22;3089;48.202;11.510;2023-02-15T16:16:08;3.20;99.90
6118;DHT22;3089;48.202;11.510;2023-02-15T16:18:40;3.20;99.90
6118;DHT22;3089;48.202;11.510;2023-02-15T16:21:14;3.20;99.90
6118;DHT22;3089;48.202;11.510;2023-02-15T16:23:58;3.30;99.90
6118;DHT22;3089;48.202;11.510;2023-02-15T16:26:59;3.60;99.90
6118;DHT22;3089;48.202;11.510;2023-02-15T16:29:31;3.40;99.90
6118;DHT22;3089;48.202;11.510;2023-02-15T16:32:00;3.30;99.90
6118;DHT22;3089;48.202;11.510;2023-02-15T16:34:30;3.10;99.90
6118;DHT22;3089;48.202;11.510;2023-02-15T16:37:13;2.60;99.90
6118;DHT22;3089;48.202;11.510;2023-02-15T16:39:42;3.30;99.90
6118;DHT22;3089;48.202;11.510;2023-02-15T16:42:11;3.40;99.90
6118;DHT22;3089;48.202;11.510;2023-02-15T16:44:40;2.90;99.90
6118;DHT22;3089;48.202;11.510;2023-02-15T16:47:14;3.30;99.90
6118;DHT22;3089;48.202;11.510;2023-02-15T16:49:47;3.10;99.90
6118;DHT22;3089;48.202;11.510;2023-02-15T16:52:18;2.90;99.90
6118;DHT22;3089;48.202;11.510;2023-02-15T16:54:50;2.70;99.90
6118;DHT22;3089;48.202;11.510;2023-02-15T16:57:21;3.10;99.90
6118;DHT22;3089;48.202;11.510;2023-02-15T16:59:52;3.40;99.90